createdAt,value
2022-10-24T00:03:12.679Z,2.53
2022-10-24T00:08:18.803Z,2.46
2022-10-24T00:13:24.998Z,2.39
2022-10-24T00:18:31.154Z,2.24
2022-10-24T00:23:37.420Z,2.30
2022-10-24T00:28:43.606Z,2.37
2022-10-24T00:33:49.933Z,2.68
2022-10-24T00:38:56.070Z,2.46
2022-10-24T00:44:02.291Z,2.26
2022-10-24T00:49:08.346Z,2.66
2022-10-24T00:54:14.881Z,2.54
2022-10-24T00:59:21.349Z,2.62
2022-10-24T01:04:27.817Z,2.67
2022-10-24T01:09:34.227Z,2.73
2022-10-24T01:14:40.389Z,2.68
2022-10-24T01:19:46.535Z,2.59
2022-10-24T01:24:52.673Z,2.57
2022-10-24T01:29:58.727Z,2.72
2022-10-24T01:35:05.304Z,2.52
2022-10-24T01:40:11.516Z,2.74
2022-10-24T01:45:17.796Z,2.67
2022-10-24T01:50:24.281Z,2.73
2022-10-24T01:55:30.752Z,2.69
2022-10-24T02:00:37.057Z,2.55
2022-10-24T02:05:43.173Z,2.81
2022-10-24T02:10:49.247Z,2.82
2022-10-24T02:15:55.411Z,2.70
2022-10-24T02:21:01.612Z,2.89
2022-10-24T02:26:07.868Z,2.46
2022-10-24T02:31:13.931Z,2.57
2022-10-24T02:36:20.237Z,2.69
2022-10-24T02:41:26.278Z,2.76
2022-10-24T02:46:32.516Z,2.69
2022-10-24T02:51:38.654Z,2.66
2022-10-24T02:56:45.104Z,2.79
2022-10-24T03:01:51.235Z,2.51
2022-10-24T03:06:57.331Z,2.68
2022-10-24T03:12:03.466Z,2.90
2022-10-24T03:17:09.585Z,2.43
2022-10-24T03:22:15.699Z,2.95
2022-10-24T03:27:21.814Z,2.71
2022-10-24T03:33:14.327Z,3.14
2022-10-24T03:38:20.561Z,2.99
2022-10-24T03:43:26.854Z,3.64
2022-10-24T03:48:33.046Z,2.94
2022-10-24T03:53:39.110Z,2.84
2022-10-24T03:58:45.306Z,3.14
2022-10-24T04:03:51.450Z,2.79
2022-10-24T04:08:57.779Z,2.87
2022-10-24T04:14:03.997Z,2.95
2022-10-24T04:19:10.243Z,3.00
2022-10-24T04:24:16.345Z,2.80
2022-10-24T04:29:22.672Z,3.09
2022-10-24T04:34:28.748Z,2.90
2022-10-24T04:39:35.252Z,3.40
2022-10-24T04:44:41.536Z,2.82
2022-10-24T04:49:47.725Z,3.05
2022-10-24T04:54:53.871Z,3.34
2022-10-24T05:00:00.101Z,2.93
2022-10-24T05:05:06.496Z,2.90
2022-10-24T05:10:12.753Z,2.84
2022-10-24T05:15:18.898Z,2.88
2022-10-24T05:20:25.180Z,3.14
2022-10-24T05:25:31.580Z,3.28
2022-10-24T05:30:38.126Z,3.22
2022-10-24T05:35:44.194Z,2.77
2022-10-24T05:40:50.591Z,3.03
2022-10-24T05:45:56.697Z,3.06
2022-10-24T05:51:02.874Z,2.88
2022-10-24T05:56:09.289Z,3.36
2022-10-24T06:01:15.539Z,3.04
2022-10-24T06:06:21.536Z,3.17
2022-10-24T06:11:27.711Z,2.69
2022-10-24T06:16:33.935Z,2.98
2022-10-24T06:21:40.221Z,2.83
2022-10-24T06:26:46.302Z,2.68
2022-10-24T06:31:52.491Z,2.78
2022-10-24T06:36:58.553Z,2.57
2022-10-24T06:42:04.796Z,2.95
2022-10-24T06:47:10.841Z,2.57
2022-10-24T06:52:17.009Z,2.20
2022-10-24T06:57:23.098Z,2.13
2022-10-24T07:02:29.373Z,2.39
2022-10-24T07:07:35.400Z,2.27
2022-10-24T07:12:41.959Z,2.36
2022-10-24T07:17:47.845Z,2.44
2022-10-24T07:22:53.991Z,2.24
2022-10-24T07:28:00.085Z,2.69
2022-10-24T07:33:06.229Z,2.15
2022-10-24T07:38:15.294Z,2.29
2022-10-24T07:43:18.029Z,2.03
2022-10-24T07:48:24.080Z,2.23
2022-10-24T07:53:30.358Z,2.27
2022-10-24T07:58:36.492Z,2.59
2022-10-24T08:03:42.668Z,2.20
2022-10-24T08:08:48.712Z,2.37
2022-10-24T08:13:54.890Z,1.82
2022-10-24T08:19:00.960Z,2.14
2022-10-24T08:24:07.255Z,1.93
2022-10-24T08:29:13.377Z,1.80
2022-10-24T08:34:19.694Z,1.91
2022-10-24T08:39:25.760Z,1.94
2022-10-24T08:44:32.003Z,2.10
2022-10-24T08:49:38.053Z,1.94
2022-10-24T08:54:44.296Z,2.14
2022-10-24T08:59:50.355Z,2.64
2022-10-24T09:04:56.490Z,1.87
2022-10-24T09:10:02.604Z,1.92
2022-10-24T09:15:08.777Z,1.64
2022-10-24T09:20:14.828Z,1.96
2022-10-24T09:25:21.022Z,1.75
2022-10-24T09:30:30.027Z,1.86
2022-10-24T09:35:32.834Z,1.85
2022-10-24T09:40:39.672Z,2.12
2022-10-24T09:45:46.377Z,1.60
2022-10-24T09:50:52.472Z,1.81
2022-10-24T09:55:58.636Z,1.56
2022-10-24T10:01:05.637Z,1.84
2022-10-24T10:06:12.736Z,1.75
2022-10-24T10:11:18.544Z,1.96
2022-10-24T10:16:24.702Z,2.08
2022-10-24T10:21:30.742Z,1.72
2022-10-24T10:26:36.887Z,1.72
2022-10-24T10:31:42.976Z,1.67
2022-10-24T10:36:49.187Z,1.81
2022-10-24T10:47:01.081Z,1.97
2022-10-24T10:52:07.164Z,1.73
2022-10-24T10:57:13.277Z,1.60
2022-10-24T11:02:19.503Z,1.78
2022-10-24T11:07:25.752Z,1.77
2022-10-24T11:12:31.823Z,1.42
2022-10-24T11:17:38.000Z,1.92
2022-10-24T11:22:44.571Z,1.65
2022-10-24T11:27:50.783Z,1.64
2022-10-24T11:32:56.879Z,1.70
2022-10-24T11:38:03.074Z,1.84
2022-10-24T11:43:09.201Z,2.04
2022-10-24T11:48:15.392Z,1.76
2022-10-24T11:53:21.491Z,1.94
2022-10-24T11:58:27.665Z,1.67
2022-10-24T12:03:33.744Z,1.65
2022-10-24T12:08:39.912Z,1.73
2022-10-24T12:13:46.233Z,1.67
2022-10-24T12:18:52.406Z,1.72
2022-10-24T12:23:58.565Z,1.45
2022-10-24T12:29:05.572Z,2.05
2022-10-24T12:34:11.644Z,1.68
2022-10-24T12:39:17.936Z,1.57
2022-10-24T12:44:23.987Z,1.52
2022-10-24T12:49:30.168Z,1.32
2022-10-24T12:54:36.256Z,1.82
2022-10-24T12:59:42.398Z,1.68
2022-10-24T13:04:48.768Z,1.65
2022-10-24T13:09:55.699Z,1.86
2022-10-24T13:15:01.786Z,1.60
2022-10-24T13:20:07.971Z,1.51
2022-10-24T13:25:14.230Z,1.67
2022-10-24T13:30:20.353Z,1.62
2022-10-24T13:35:26.549Z,1.50
2022-10-24T13:40:33.561Z,2.06
2022-10-24T13:45:39.699Z,1.72
2022-10-24T13:50:46.046Z,1.42
2022-10-24T13:55:52.490Z,1.52
2022-10-24T14:00:58.720Z,1.39
2022-10-24T14:06:04.839Z,1.53
2022-10-24T14:11:11.055Z,1.47
2022-10-24T14:16:17.221Z,1.30
2022-10-24T14:21:23.431Z,1.35
2022-10-24T14:26:29.678Z,1.20
2022-10-24T14:31:35.816Z,1.35
2022-10-24T14:36:41.867Z,1.37
2022-10-24T14:41:48.049Z,1.24
2022-10-24T14:46:54.116Z,1.51
2022-10-24T14:52:00.270Z,1.34
2022-10-24T14:57:09.254Z,1.06
2022-10-24T15:02:12.067Z,1.41
2022-10-24T15:07:18.151Z,1.31
2022-10-24T15:12:24.614Z,1.45
2022-10-24T15:17:32.988Z,1.43
2022-10-24T15:22:37.618Z,1.58
2022-10-24T15:27:43.976Z,1.44
2022-10-24T15:32:49.447Z,1.68
2022-10-24T15:37:55.847Z,1.69
2022-10-24T15:43:02.132Z,1.67
2022-10-24T15:48:08.254Z,1.78
2022-10-24T15:53:14.461Z,1.96
2022-10-24T15:58:20.647Z,1.75
2022-10-24T16:03:26.944Z,1.63
2022-10-24T16:08:33.091Z,1.88
2022-10-24T16:13:39.270Z,1.73
2022-10-24T16:18:45.662Z,1.71
2022-10-24T16:23:52.254Z,1.76
2022-10-24T16:28:59.065Z,1.77
2022-10-24T16:34:05.288Z,2.23
2022-10-24T16:39:11.453Z,2.20
2022-10-24T16:44:17.816Z,2.38
2022-10-24T16:49:23.987Z,1.93
2022-10-24T16:54:30.725Z,2.04
2022-10-24T16:59:36.876Z,1.75
2022-10-24T17:04:43.055Z,1.72
2022-10-24T17:09:49.447Z,1.75
2022-10-24T17:14:55.641Z,1.92
2022-10-24T17:20:02.193Z,1.98
2022-10-24T17:25:08.417Z,2.08
2022-10-24T17:30:14.482Z,1.62
2022-10-24T17:35:20.733Z,1.90
2022-10-24T17:40:27.614Z,1.95
2022-10-24T17:45:34.387Z,1.91
2022-10-24T17:50:40.479Z,1.75
2022-10-24T17:55:47.984Z,2.06
2022-10-24T18:00:52.809Z,2.30
2022-10-24T18:05:59.637Z,2.43
2022-10-24T18:11:06.145Z,2.15
2022-10-24T18:16:12.962Z,2.60
2022-10-24T18:26:25.421Z,2.66
2022-10-24T18:31:31.977Z,2.59
2022-10-24T18:36:38.116Z,3.49
2022-10-24T18:41:44.299Z,4.84
2022-10-24T18:46:50.531Z,8.54
2022-10-24T18:51:56.964Z,8.34
2022-10-24T18:57:03.383Z,4.34
2022-10-24T19:02:09.666Z,3.24
2022-10-24T19:07:15.750Z,3.41
2022-10-24T19:12:21.798Z,3.32
2022-10-24T19:17:28.139Z,3.92
2022-10-24T19:22:34.202Z,3.96
2022-10-24T19:27:40.806Z,3.18
2022-10-24T19:32:49.771Z,3.45
2022-10-24T19:37:55.690Z,3.26
2022-10-24T19:43:01.846Z,3.60
2022-10-24T19:48:08.103Z,3.73
2022-10-24T19:53:14.229Z,3.12
2022-10-24T19:58:20.376Z,3.46
2022-10-24T20:03:26.456Z,3.21
2022-10-24T20:08:32.755Z,3.35
2022-10-24T20:13:38.825Z,3.38
2022-10-24T20:18:45.077Z,3.14
2022-10-24T20:23:51.200Z,3.42
2022-10-24T20:28:57.543Z,3.67
2022-10-24T20:34:07.095Z,3.47
2022-10-24T20:39:09.763Z,3.17
2022-10-24T20:44:15.832Z,3.01
2022-10-24T20:49:22.046Z,3.16
2022-10-24T20:54:28.201Z,3.07
2022-10-24T20:59:35.801Z,2.98
2022-10-24T21:04:41.964Z,2.94
2022-10-24T21:09:48.159Z,3.19
2022-10-24T21:14:54.315Z,3.09
2022-10-24T21:20:00.527Z,2.94
2022-10-24T21:25:06.732Z,3.06
2022-10-24T21:30:14.812Z,2.96
2022-10-24T21:35:18.641Z,2.77
2022-10-24T21:40:24.792Z,2.53
2022-10-24T21:45:30.851Z,2.63
2022-10-24T21:50:37.492Z,2.66
2022-10-24T21:55:43.863Z,2.81
2022-10-24T22:00:50.003Z,3.37
2022-10-24T22:05:56.168Z,2.96
2022-10-24T22:11:02.320Z,3.24
2022-10-24T22:16:08.500Z,3.09
2022-10-24T22:21:15.494Z,3.00
2022-10-24T22:26:21.888Z,3.11
2022-10-24T22:31:28.416Z,3.42
2022-10-24T22:36:34.844Z,3.41
2022-10-24T22:41:41.040Z,3.55
2022-10-24T22:46:47.134Z,3.90
2022-10-24T22:51:53.412Z,4.32
2022-10-24T22:56:59.477Z,4.59
2022-10-24T23:02:05.915Z,4.49
2022-10-24T23:07:12.262Z,4.59
2022-10-24T23:12:17.971Z,4.90
2022-10-24T23:17:24.827Z,5.38
2022-10-24T23:22:31.097Z,5.01
2022-10-24T23:27:37.536Z,5.04
2022-10-24T23:32:43.961Z,5.01
2022-10-24T23:37:49.858Z,4.68
2022-10-24T23:42:56.411Z,5.20
2022-10-24T23:48:02.527Z,4.89
2022-10-24T23:53:08.746Z,5.13
2022-10-24T23:58:14.791Z,5.21
